sensor_id;sensor_type;location;lat;lon;timestamp;pressure;altitude;pressure_sealevel;temperature;humidity
75996;BME280;64681;49.738;9.004;2023-08-20T00:00:35;99851.97;;;21.69;99.80
75996;BME280;64681;49.738;9.004;2023-08-20T00:03:19;99849.69;;;21.64;100.00
75996;BME280;64681;49.738;9.004;2023-08-20T00:05:45;99852.34;;;21.78;99.04
75996;BME280;64681;49.738;9.004;2023-08-20T00:08:11;99853.06;;;21.86;98.24
75996;BME280;64681;49.738;9.004;2023-08-20T00:10:36;99846.53;;;21.73;99.60
75996;BME280;64681;49.738;9.004;2023-08-20T00:13:02;99849.22;;;21.84;98.23
75996;BME280;64681;49.738;9.004;2023-08-20T00:15:29;99858.91;;;21.85;98.49
75996;BME280;64681;49.738;9.004;2023-08-20T00:17:56;99848.84;;;21.74;99.54
75996;BME280;64681;49.738;9.004;2023-08-20T00:20:22;99844.56;;;21.73;99.65
75996;BME280;64681;49.738;9.004;2023-08-20T00:22:48;99851.53;;;21.85;98.08
75996;BME280;64681;49.738;9.004;2023-08-20T00:25:15;99856.94;;;21.92;97.68
75996;BME280;64681;49.738;9.004;2023-08-20T00:27:43;99852.31;;;21.89;97.56
75996;BME280;64681;49.738;9.004;2023-08-20T00:30:09;99853.50;;;21.81;98.21
75996;BME280;64681;49.738;9.004;2023-08-20T00:32:36;99853.06;;;21.86;97.56
75996;BME280;64681;49.738;9.004;2023-08-20T00:35:03;99855.03;;;21.86;97.25
75996;BME280;64681;49.738;9.004;2023-08-20T00:37:29;99859.34;;;21.76;98.40
75996;BME280;64681;49.738;9.004;2023-08-20T00:39:56;99857.00;;;21.78;97.86
75996;BME280;64681;49.738;9.004;2023-08-20T00:44:51;99862.09;;;21.61;99.65
75996;BME280;64681;49.738;9.004;2023-08-20T00:47:18;99864.81;;;21.72;98.96
75996;BME280;64681;49.738;9.004;2023-08-20T00:49:45;99864.38;;;21.77;98.17
75996;BME280;64681;49.738;9.004;2023-08-20T00:52:12;99867.84;;;21.81;97.86
75996;BME280;64681;49.738;9.004;2023-08-20T00:54:44;99870.22;;;21.79;97.67
75996;BME280;64681;49.738;9.004;2023-08-20T00:57:13;99871.38;;;21.75;97.59
75996;BME280;64681;49.738;9.004;2023-08-20T00:59:40;99869.84;;;21.66;98.36
75996;BME280;64681;49.738;9.004;2023-08-20T01:02:06;99875.69;;;21.61;98.61
75996;BME280;64681;49.738;9.004;2023-08-20T01:04:32;99869.06;;;21.66;97.89
75996;BME280;64681;49.738;9.004;2023-08-20T01:07:14;99878.38;;;21.65;97.55
75996;BME280;64681;49.738;9.004;2023-08-20T01:12:28;99878.41;;;21.58;97.65
75996;BME280;64681;49.738;9.004;2023-08-20T01:14:54;99873.75;;;21.55;97.78
75996;BME280;64681;49.738;9.004;2023-08-20T01:17:19;99862.91;;;21.44;98.94
75996;BME280;64681;49.738;9.004;2023-08-20T01:19:45;99868.72;;;21.28;100.00
75996;BME280;64681;49.738;9.004;2023-08-20T01:25:21;99868.38;;;21.22;99.08
75996;BME280;64681;49.738;9.004;2023-08-20T01:28:27;99867.59;;;21.03;100.00
75996;BME280;64681;49.738;9.004;2023-08-20T01:30:57;99868.34;;;21.11;100.00
75996;BME280;64681;49.738;9.004;2023-08-20T01:33:23;99867.19;;;21.12;100.00
75996;BME280;64681;49.738;9.004;2023-08-20T01:35:50;99867.97;;;21.09;99.87
75996;BME280;64681;49.738;9.004;2023-08-20T01:38:16;99868.75;;;21.02;100.00
75996;BME280;64681;49.738;9.004;2023-08-20T01:40:42;99864.88;;;21.00;100.00
75996;BME280;64681;49.738;9.004;2023-08-20T01:43:08;99862.91;;;21.11;100.00
75996;BME280;64681;49.738;9.004;2023-08-20T01:45:33;99866.81;;;21.14;99.44
75996;BME280;64681;49.738;9.004;2023-08-20T01:47:59;99869.16;;;21.12;99.37
75996;BME280;64681;49.738;9.004;2023-08-20T01:50:25;99858.28;;;20.90;100.00
75996;BME280;64681;49.738;9.004;2023-08-20T01:52:50;99857.50;;;20.93;100.00
75996;BME280;64681;49.738;9.004;2023-08-20T01:55:16;99859.47;;;20.85;100.00
75996;BME280;64681;49.738;9.004;2023-08-20T01:57:41;99854.75;;;20.64;100.00
75996;BME280;64681;49.738;9.004;2023-08-20T02:00:07;99849.34;;;20.79;100.00
75996;BME280;64681;49.738;9.004;2023-08-20T02:02:33;99850.16;;;20.79;99.62
75996;BME280;64681;49.738;9.004;2023-08-20T02:04:59;99852.03;;;20.61;100.00
75996;BME280;64681;49.738;9.004;2023-08-20T02:07:25;99852.03;;;20.53;100.00
75996;BME280;64681;49.738;9.004;2023-08-20T02:09:51;99846.59;;;20.61;100.00
75996;BME280;64681;49.738;9.004;2023-08-20T02:12:17;99852.03;;;20.53;100.00
75996;BME280;64681;49.738;9.004;2023-08-20T02:14:43;99839.59;;;20.34;100.00
75996;BME280;64681;49.738;9.004;2023-08-20T02:17:09;99840.00;;;20.40;100.00
75996;BME280;64681;49.738;9.004;2023-08-20T02:19:35;99845.41;;;20.36;100.00
75996;BME280;64681;49.738;9.004;2023-08-20T02:22:00;99839.22;;;20.43;100.00
75996;BME280;64681;49.738;9.004;2023-08-20T02:24:26;99836.47;;;20.29;100.00
75996;BME280;64681;49.738;9.004;2023-08-20T02:26:51;99838.03;;;20.30;100.00
75996;BME280;64681;49.738;9.004;2023-08-20T02:29:17;99838.72;;;20.01;100.00
75996;BME280;64681;49.738;9.004;2023-08-20T02:31:43;99839.94;;;20.18;100.00
75996;BME280;64681;49.738;9.004;2023-08-20T02:34:08;99841.09;;;20.14;100.00
75996;BME280;64681;49.738;9.004;2023-08-20T02:36:34;99844.56;;;20.07;100.00
75996;BME280;64681;49.738;9.004;2023-08-20T02:38:59;99847.69;;;20.13;100.00
75996;BME280;64681;49.738;9.004;2023-08-20T02:41:25;99849.16;;;19.88;100.00
75996;BME280;64681;49.738;9.004;2023-08-20T02:43:51;99846.88;;;20.05;100.00
75996;BME280;64681;49.738;9.004;2023-08-20T02:46:16;99856.50;;;19.91;100.00
75996;BME280;64681;49.738;9.004;2023-08-20T02:48:42;99851.50;;;20.01;100.00
75996;BME280;64681;49.738;9.004;2023-08-20T02:51:07;99861.22;;;20.05;100.00
75996;BME280;64681;49.738;9.004;2023-08-20T02:53:33;99861.56;;;20.00;100.00
75996;BME280;64681;49.738;9.004;2023-08-20T02:55:58;99869.66;;;19.93;100.00
75996;BME280;64681;49.738;9.004;2023-08-20T02:58:24;99863.88;;;19.91;100.00
75996;BME280;64681;49.738;9.004;2023-08-20T03:00:50;99857.66;;;19.94;100.00
75996;BME280;64681;49.738;9.004;2023-08-20T03:03:16;99854.97;;;19.98;100.00
75996;BME280;64681;49.738;9.004;2023-08-20T03:05:42;99858.06;;;19.96;100.00
75996;BME280;64681;49.738;9.004;2023-08-20T03:08:08;99860.75;;;19.85;100.00
75996;BME280;64681;49.738;9.004;2023-08-20T03:10:34;99855.28;;;19.82;100.00
75996;BME280;64681;49.738;9.004;2023-08-20T03:13:01;99861.84;;;19.81;100.00
75996;BME280;64681;49.738;9.004;2023-08-20T03:15:30;99866.56;;;19.87;100.00
75996;BME280;64681;49.738;9.004;2023-08-20T03:17:55;99871.09;;;19.72;100.00
75996;BME280;64681;49.738;9.004;2023-08-20T03:20:21;99863.38;;;19.74;100.00
75996;BME280;64681;49.738;9.004;2023-08-20T03:22:47;99856.81;;;19.75;100.00
75996;BME280;64681;49.738;9.004;2023-08-20T03:25:13;99864.16;;;19.78;100.00
75996;BME280;64681;49.738;9.004;2023-08-20T03:27:38;99869.94;;;19.70;100.00
75996;BME280;64681;49.738;9.004;2023-08-20T03:30:05;99872.59;;;19.63;100.00
75996;BME280;64681;49.738;9.004;2023-08-20T03:32:31;99881.16;;;19.68;100.00
75996;BME280;64681;49.738;9.004;2023-08-20T03:34:56;99874.44;;;19.51;100.00
75996;BME280;64681;49.738;9.004;2023-08-20T03:37:25;99879.88;;;19.51;100.00
75996;BME280;64681;49.738;9.004;2023-08-20T03:39:50;99877.19;;;19.55;100.00
75996;BME280;64681;49.738;9.004;2023-08-20T03:42:16;99877.63;;;19.64;100.00
75996;BME280;64681;49.738;9.004;2023-08-20T03:44:42;99869.13;;;19.66;100.00
75996;BME280;64681;49.738;9.004;2023-08-20T03:47:07;99868.34;;;19.65;100.00
75996;BME280;64681;49.738;9.004;2023-08-20T03:49:33;99869.81;;;19.48;100.00
75996;BME280;64681;49.738;9.004;2023-08-20T03:51:59;99866.31;;;19.48;100.00
75996;BME280;64681;49.738;9.004;2023-08-20T03:54:27;99864.00;;;19.46;100.00
75996;BME280;64681;49.738;9.004;2023-08-20T03:56:53;99861.75;;;19.59;100.00
75996;BME280;64681;49.738;9.004;2023-08-20T03:59:19;99862.53;;;19.63;100.00
75996;BME280;64681;49.738;9.004;2023-08-20T04:01:44;99870.66;;;19.67;100.00
75996;BME280;64681;49.738;9.004;2023-08-20T04:04:10;99868.69;;;19.53;100.00
75996;BME280;64681;49.738;9.004;2023-08-20T04:06:35;99875.69;;;19.57;100.00
75996;BME280;64681;49.738;9.004;2023-08-20T04:09:01;99883.81;;;19.61;100.00
75996;BME280;64681;49.738;9.004;2023-08-20T04:11:27;99885.75;;;19.60;100.00
75996;BME280;64681;49.738;9.004;2023-08-20T04:13:52;99878.41;;;19.61;100.00
75996;BME280;64681;49.738;9.004;2023-08-20T04:16:18;99877.59;;;19.60;100.00
75996;BME280;64681;49.738;9.004;2023-08-20T04:18:43;99865.59;;;19.54;100.00
75996;BME280;64681;49.738;9.004;2023-08-20T04:21:09;99857.00;;;19.45;100.00
75996;BME280;64681;49.738;9.004;2023-08-20T04:23:34;99863.63;;;19.51;100.00
75996;BME280;64681;49.738;9.004;2023-08-20T04:26:00;99862.84;;;19.47;100.00
75996;BME280;64681;49.738;9.004;2023-08-20T04:28:25;99858.97;;;19.48;100.00
75996;BME280;64681;49.738;9.004;2023-08-20T04:30:54;99870.56;;;19.49;100.00
75996;BME280;64681;49.738;9.004;2023-08-20T04:33:20;99869.81;;;19.48;100.00
75996;BME280;64681;49.738;9.004;2023-08-20T04:35:48;99867.09;;;19.48;100.00
75996;BME280;64681;49.738;9.004;2023-08-20T04:38:15;99864.00;;;19.46;100.00
75996;BME280;64681;49.738;9.004;2023-08-20T04:40:41;99872.09;;;19.46;100.00
75996;BME280;64681;49.738;9.004;2023-08-20T04:43:06;99879.53;;;19.56;100.00
75996;BME280;64681;49.738;9.004;2023-08-20T04:45:32;99880.75;;;19.66;100.00
75996;BME280;64681;49.738;9.004;2023-08-20T04:47:57;99880.78;;;19.73;100.00
75996;BME280;64681;49.738;9.004;2023-08-20T04:50:23;99885.44;;;19.76;100.00
75996;BME280;64681;49.738;9.004;2023-08-20T04:52:48;99882.00;;;19.83;100.00
75996;BME280;64681;49.738;9.004;2023-08-20T04:55:14;99884.63;;;19.69;100.00
75996;BME280;64681;49.738;9.004;2023-08-20T04:57:41;99881.94;;;19.76;100.00
75996;BME280;64681;49.738;9.004;2023-08-20T05:00:07;99888.63;;;19.89;100.00
75996;BME280;64681;49.738;9.004;2023-08-20T05:02:33;99886.75;;;19.97;100.00
75996;BME280;64681;49.738;9.004;2023-08-20T05:04:58;99888.31;;;20.02;100.00
75996;BME280;64681;49.738;9.004;2023-08-20T05:07:24;99893.75;;;20.05;100.00
75996;BME280;64681;49.738;9.004;2023-08-20T05:09:49;99901.50;;;20.14;100.00
75996;BME280;64681;49.738;9.004;2023-08-20T05:12:15;99902.31;;;20.18;100.00
75996;BME280;64681;49.738;9.004;2023-08-20T05:14:41;99906.63;;;20.27;100.00
75996;BME280;64681;49.738;9.004;2023-08-20T05:17:06;99907.38;;;20.31;100.00
75996;BME280;64681;49.738;9.004;2023-08-20T05:19:32;99915.94;;;20.36;100.00
75996;BME280;64681;49.738;9.004;2023-08-20T05:21:57;99913.66;;;20.53;99.84
75996;BME280;64681;49.738;9.004;2023-08-20T05:24:24;99924.16;;;20.65;99.37
75996;BME280;64681;49.738;9.004;2023-08-20T05:27:09;99925.34;;;20.75;98.92
75996;BME280;64681;49.738;9.004;2023-08-20T05:29:36;99923.81;;;20.81;98.56
75996;BME280;64681;49.738;9.004;2023-08-20T05:32:02;99924.22;;;20.87;97.98
75996;BME280;64681;49.738;9.004;2023-08-20T05:34:28;99933.16;;;20.87;97.27
75996;BME280;64681;49.738;9.004;2023-08-20T05:36:53;99940.09;;;20.81;97.06
75996;BME280;64681;49.738;9.004;2023-08-20T05:39:19;99941.28;;;20.84;96.78
75996;BME280;64681;49.738;9.004;2023-08-20T05:41:44;99933.16;;;20.95;97.04
75996;BME280;64681;49.738;9.004;2023-08-20T05:44:10;99933.53;;;21.08;96.92
75996;BME280;64681;49.738;9.004;2023-08-20T05:46:36;99935.88;;;21.20;96.91
75996;BME280;64681;49.738;9.004;2023-08-20T05:49:01;99931.19;;;21.35;96.79
75996;BME280;64681;49.738;9.004;2023-08-20T05:51:27;99933.13;;;21.49;96.61
75996;BME280;64681;49.738;9.004;2023-08-20T05:53:52;99938.19;;;21.58;94.88
75996;BME280;64681;49.738;9.004;2023-08-20T05:56:18;99939.72;;;21.66;93.31
75996;BME280;64681;49.738;9.004;2023-08-20T05:58:43;99945.19;;;21.33;91.56
75996;BME280;64681;49.738;9.004;2023-08-20T06:01:09;99946.69;;;21.85;93.72
75996;BME280;64681;49.738;9.004;2023-08-20T06:03:34;99934.16;;;22.20;92.69
75996;BME280;64681;49.738;9.004;2023-08-20T06:06:00;99949.59;;;22.49;92.27
75996;BME280;64681;49.738;9.004;2023-08-20T06:08:26;99951.41;;;22.70;91.24
75996;BME280;64681;49.738;9.004;2023-08-20T06:10:51;99944.34;;;22.83;88.41
75996;BME280;64681;49.738;9.004;2023-08-20T06:13:17;99946.44;;;23.21;88.26
75996;BME280;64681;49.738;9.004;2023-08-20T06:15:43;99939.44;;;23.62;86.34
75996;BME280;64681;49.738;9.004;2023-08-20T06:18:08;99940.63;;;23.99;84.40
75996;BME280;64681;49.738;9.004;2023-08-20T06:20:34;99944.97;;;24.27;81.88
75996;BME280;64681;49.738;9.004;2023-08-20T06:22:59;99952.69;;;24.63;80.88
75996;BME280;64681;49.738;9.004;2023-08-20T06:25:25;99955.19;;;25.09;78.47
75996;BME280;64681;49.738;9.004;2023-08-20T06:27:50;99950.97;;;25.52;75.69
75996;BME280;64681;49.738;9.004;2023-08-20T06:30:16;99953.75;;;25.92;73.91
75996;BME280;64681;49.738;9.004;2023-08-20T06:32:44;99956.84;;;26.34;71.23
75996;BME280;64681;49.738;9.004;2023-08-20T06:35:10;99951.16;;;26.82;69.51
75996;BME280;64681;49.738;9.004;2023-08-20T06:37:38;99953.03;;;27.01;68.37
75996;BME280;64681;49.738;9.004;2023-08-20T06:40:05;99947.75;;;26.74;69.30
75996;BME280;64681;49.738;9.004;2023-08-20T06:42:31;99960.69;;;26.37;70.86
75996;BME280;64681;49.738;9.004;2023-08-20T06:44:57;99951.59;;;26.03;71.79
75996;BME280;64681;49.738;9.004;2023-08-20T06:47:22;99960.47;;;26.48;70.92
75996;BME280;64681;49.738;9.004;2023-08-20T06:49:49;99966.28;;;27.03;68.46
75996;BME280;64681;49.738;9.004;2023-08-20T06:52:14;99960.00;;;28.79;63.01
75996;BME280;64681;49.738;9.004;2023-08-20T06:54:40;99972.09;;;30.22;58.44
75996;BME280;64681;49.738;9.004;2023-08-20T06:57:05;99976.09;;;30.53;55.75
75996;BME280;64681;49.738;9.004;2023-08-20T06:59:31;99972.63;;;30.71;56.07
75996;BME280;64681;49.738;9.004;2023-08-20T07:01:56;99973.41;;;31.40;54.30
75996;BME280;64681;49.738;9.004;2023-08-20T07:04:22;99968.69;;;32.73;50.92
75996;BME280;64681;49.738;9.004;2023-08-20T07:06:47;99964.31;;;33.14;49.03
75996;BME280;64681;49.738;9.004;2023-08-20T07:09:13;99978.88;;;32.24;51.03
75996;BME280;64681;49.738;9.004;2023-08-20T07:11:38;99976.16;;;31.12;54.38
75996;BME280;64681;49.738;9.004;2023-08-20T07:14:04;99981.13;;;30.23;56.72
75996;BME280;64681;49.738;9.004;2023-08-20T07:16:29;99981.16;;;29.30;58.26
75996;BME280;64681;49.738;9.004;2023-08-20T07:18:55;99974.28;;;28.61;59.99
75996;BME280;64681;49.738;9.004;2023-08-20T07:21:20;99979.09;;;28.31;59.65
75996;BME280;64681;49.738;9.004;2023-08-20T07:23:46;99977.25;;;27.03;64.12
75996;BME280;64681;49.738;9.004;2023-08-20T07:26:11;99975.91;;;27.44;63.39
75996;BME280;64681;49.738;9.004;2023-08-20T07:28:37;99983.09;;;27.22;64.40
75996;BME280;64681;49.738;9.004;2023-08-20T07:31:25;99981.94;;;28.40;61.60
75996;BME280;64681;49.738;9.004;2023-08-20T07:33:53;99986.41;;;28.77;61.09
75996;BME280;64681;49.738;9.004;2023-08-20T07:36:21;99989.53;;;28.62;61.29
75996;BME280;64681;49.738;9.004;2023-08-20T07:38:51;99987.53;;;28.37;62.06
75996;BME280;64681;49.738;9.004;2023-08-20T07:41:17;99977.44;;;28.04;62.86
75996;BME280;64681;49.738;9.004;2023-08-20T07:43:45;99976.25;;;27.76;64.42
75996;BME280;64681;49.738;9.004;2023-08-20T07:46:12;99984.13;;;27.44;65.55
75996;BME280;64681;49.738;9.004;2023-08-20T07:48:38;99974.06;;;27.21;65.97
75996;BME280;64681;49.738;9.004;2023-08-20T07:51:04;99973.66;;;27.39;64.88
75996;BME280;64681;49.738;9.004;2023-08-20T07:53:30;99963.69;;;27.62;64.27
75996;BME280;64681;49.738;9.004;2023-08-20T07:55:56;99960.97;;;27.75;63.27
75996;BME280;64681;49.738;9.004;2023-08-20T07:58:22;99971.09;;;27.78;61.96
75996;BME280;64681;49.738;9.004;2023-08-20T08:00:47;99968.47;;;26.75;65.85
75996;BME280;64681;49.738;9.004;2023-08-20T08:03:13;99971.44;;;26.84;65.26
75996;BME280;64681;49.738;9.004;2023-08-20T08:05:50;99969.28;;;27.09;64.45
75996;BME280;64681;49.738;9.004;2023-08-20T08:08:16;99967.47;;;27.02;64.00
75996;BME280;64681;49.738;9.004;2023-08-20T08:10:43;99973.22;;;26.91;64.91
75996;BME280;64681;49.738;9.004;2023-08-20T08:13:15;99971.59;;;27.10;65.90
75996;BME280;64681;49.738;9.004;2023-08-20T08:15:40;99979.22;;;27.36;66.12
75996;BME280;64681;49.738;9.004;2023-08-20T08:18:07;99975.03;;;27.77;65.70
75996;BME280;64681;49.738;9.004;2023-08-20T08:20:33;99977.41;;;28.21;63.74
75996;BME280;64681;49.738;9.004;2023-08-20T08:22:59;99978.56;;;28.75;62.56
75996;BME280;64681;49.738;9.004;2023-08-20T08:25:26;99980.59;;;29.22;61.68
75996;BME280;64681;49.738;9.004;2023-08-20T08:27:51;99985.59;;;29.63;60.41
75996;BME280;64681;49.738;9.004;2023-08-20T08:30:17;99992.59;;;29.77;59.92
75996;BME280;64681;49.738;9.004;2023-08-20T08:32:43;99985.06;;;29.55;59.99
75996;BME280;64681;49.738;9.004;2023-08-20T08:35:08;99985.34;;;29.22;60.41
75996;BME280;64681;49.738;9.004;2023-08-20T08:37:34;99992.88;;;28.96;61.29
75996;BME280;64681;49.738;9.004;2023-08-20T08:39:59;99991.63;;;28.97;62.25
75996;BME280;64681;49.738;9.004;2023-08-20T08:42:25;99980.69;;;30.02;60.08
75996;BME280;64681;49.738;9.004;2023-08-20T08:44:52;99985.50;;;31.24;56.44
75996;BME280;64681;49.738;9.004;2023-08-20T08:47:22;99979.19;;;32.26;52.44
75996;BME280;64681;49.738;9.004;2023-08-20T08:49:48;99982.31;;;33.43;50.09
75996;BME280;64681;49.738;9.004;2023-08-20T08:52:15;99981.94;;;34.70;47.21
75996;BME280;64681;49.738;9.004;2023-08-20T08:54:41;99992.84;;;35.51;45.07
75996;BME280;64681;49.738;9.004;2023-08-20T08:57:07;99997.31;;;36.54;43.40
75996;BME280;64681;49.738;9.004;2023-08-20T08:59:33;99997.06;;;36.95;40.40
75996;BME280;64681;49.738;9.004;2023-08-20T09:01:58;100002.31;;;37.36;39.69
75996;BME280;64681;49.738;9.004;2023-08-20T09:04:25;100002.91;;;36.59;41.18
75996;BME280;64681;49.738;9.004;2023-08-20T09:06:53;100001.84;;;35.67;40.85
75996;BME280;64681;49.738;9.004;2023-08-20T09:09:21;99998.53;;;35.21;42.95
75996;BME280;64681;49.738;9.004;2023-08-20T09:11:48;99995.38;;;35.34;42.25
75996;BME280;64681;49.738;9.004;2023-08-20T09:14:31;99986.66;;;36.52;42.05
75996;BME280;64681;49.738;9.004;2023-08-20T09:17:01;99985.03;;;37.32;40.15
75996;BME280;64681;49.738;9.004;2023-08-20T09:19:35;99988.16;;;37.57;40.06
75996;BME280;64681;49.738;9.004;2023-08-20T09:22:03;99994.53;;;36.59;39.97
75996;BME280;64681;49.738;9.004;2023-08-20T09:24:45;99991.09;;;35.54;40.90
75996;BME280;64681;49.738;9.004;2023-08-20T09:27:14;99997.34;;;34.71;43.55
75996;BME280;64681;49.738;9.004;2023-08-20T09:30:00;99997.66;;;33.20;45.99
75996;BME280;64681;49.738;9.004;2023-08-20T09:32:27;99992.03;;;31.08;51.86
75996;BME280;64681;49.738;9.004;2023-08-20T09:34:54;99994.06;;;30.13;55.06
75996;BME280;64681;49.738;9.004;2023-08-20T09:37:21;99989.03;;;31.24;53.14
75996;BME280;64681;49.738;9.004;2023-08-20T09:39:47;99991.47;;;31.13;53.52
75996;BME280;64681;49.738;9.004;2023-08-20T09:42:14;99989.03;;;30.74;55.93
75996;BME280;64681;49.738;9.004;2023-08-20T09:44:41;99994.22;;;30.41;57.13
75996;BME280;64681;49.738;9.004;2023-08-20T09:47:12;99988.50;;;30.57;55.62
75996;BME280;64681;49.738;9.004;2023-08-20T09:49:40;99996.50;;;30.42;54.54
75996;BME280;64681;49.738;9.004;2023-08-20T09:52:09;99999.00;;;29.26;56.68
75996;BME280;64681;49.738;9.004;2023-08-20T09:54:50;99987.50;;;29.75;57.17
75996;BME280;64681;49.738;9.004;2023-08-20T09:57:28;99994.03;;;29.91;55.66
75996;BME280;64681;49.738;9.004;2023-08-20T09:59:58;99988.34;;;29.63;54.71
75996;BME280;64681;49.738;9.004;2023-08-20T10:02:25;99984.03;;;29.27;57.49
75996;BME280;64681;49.738;9.004;2023-08-20T10:04:52;99982.53;;;28.87;55.58
75996;BME280;64681;49.738;9.004;2023-08-20T10:07:18;99987.88;;;29.29;55.86
75996;BME280;64681;49.738;9.004;2023-08-20T10:09:45;99990.13;;;28.96;56.35
75996;BME280;64681;49.738;9.004;2023-08-20T10:12:13;99980.41;;;29.17;57.56
75996;BME280;64681;49.738;9.004;2023-08-20T10:14:40;99982.97;;;28.98;60.50
75996;BME280;64681;49.738;9.004;2023-08-20T10:17:07;99977.22;;;28.67;57.06
75996;BME280;64681;49.738;9.004;2023-08-20T10:19:34;99977.44;;;29.11;55.53
75996;BME280;64681;49.738;9.004;2023-08-20T10:22:02;99970.28;;;29.27;55.73
75996;BME280;64681;49.738;9.004;2023-08-20T10:24:28;99974.22;;;29.26;56.04
75996;BME280;64681;49.738;9.004;2023-08-20T10:27:10;99968.59;;;29.29;56.55
75996;BME280;64681;49.738;9.004;2023-08-20T10:29:40;99959.09;;;28.95;57.29
75996;BME280;64681;49.738;9.004;2023-08-20T10:32:11;99972.94;;;29.04;57.26
75996;BME280;64681;49.738;9.004;2023-08-20T10:34:38;99969.75;;;29.06;54.82
75996;BME280;64681;49.738;9.004;2023-08-20T10:37:14;99969.16;;;29.37;54.05
75996;BME280;64681;49.738;9.004;2023-08-20T10:39:41;99967.91;;;29.51;54.91
75996;BME280;64681;49.738;9.004;2023-08-20T10:47:41;99967.84;;;29.64;51.92
75996;BME280;64681;49.738;9.004;2023-08-20T10:50:08;99963.75;;;29.91;51.64
75996;BME280;64681;49.738;9.004;2023-08-20T10:52:40;99964.59;;;30.00;50.95
75996;BME280;64681;49.738;9.004;2023-08-20T10:55:07;99965.25;;;30.05;52.85
75996;BME280;64681;49.738;9.004;2023-08-20T10:57:35;99965.13;;;30.08;50.30
75996;BME280;64681;49.738;9.004;2023-08-20T11:00:03;99968.03;;;29.69;50.03
75996;BME280;64681;49.738;9.004;2023-08-20T11:02:41;99958.31;;;29.56;51.85
75996;BME280;64681;49.738;9.004;2023-08-20T11:05:20;99965.53;;;29.27;52.46
75996;BME280;64681;49.738;9.004;2023-08-20T11:07:49;99959.56;;;29.77;52.20
75996;BME280;64681;49.738;9.004;2023-08-20T11:10:17;99964.06;;;29.71;52.25
75996;BME280;64681;49.738;9.004;2023-08-20T11:12:46;99963.56;;;29.85;49.83
75996;BME280;64681;49.738;9.004;2023-08-20T11:15:12;99961.28;;;29.61;52.04
75996;BME280;64681;49.738;9.004;2023-08-20T11:17:50;99960.91;;;29.72;55.08
75996;BME280;64681;49.738;9.004;2023-08-20T11:20:15;99960.03;;;29.62;53.48
75996;BME280;64681;49.738;9.004;2023-08-20T11:22:41;99957.44;;;30.03;51.63
75996;BME280;64681;49.738;9.004;2023-08-20T11:25:12;99962.66;;;29.44;52.44
75996;BME280;64681;49.738;9.004;2023-08-20T11:27:44;99953.97;;;29.67;50.63
75996;BME280;64681;49.738;9.004;2023-08-20T11:30:11;99956.59;;;29.71;50.86
75996;BME280;64681;49.738;9.004;2023-08-20T11:32:40;99953.34;;;29.85;49.65
75996;BME280;64681;49.738;9.004;2023-08-20T11:35:07;99961.31;;;29.71;50.20
75996;BME280;64681;49.738;9.004;2023-08-20T11:37:33;99966.44;;;29.81;51.67
75996;BME280;64681;49.738;9.004;2023-08-20T11:39:59;99953.91;;;29.80;49.44
75996;BME280;64681;49.738;9.004;2023-08-20T11:42:25;99943.78;;;29.55;49.13
75996;BME280;64681;49.738;9.004;2023-08-20T11:44:55;99949.84;;;29.50;51.94
75996;BME280;64681;49.738;9.004;2023-08-20T11:47:21;99952.28;;;29.48;53.87
75996;BME280;64681;49.738;9.004;2023-08-20T11:49:46;99953.56;;;29.56;50.86
75996;BME280;64681;49.738;9.004;2023-08-20T11:52:12;99954.34;;;29.57;50.08
75996;BME280;64681;49.738;9.004;2023-08-20T11:54:38;99955.59;;;29.43;53.15
75996;BME280;64681;49.738;9.004;2023-08-20T11:57:06;99957.47;;;29.46;52.54
75996;BME280;64681;49.738;9.004;2023-08-20T11:59:32;99950.44;;;29.45;53.82
75996;BME280;64681;49.738;9.004;2023-08-20T12:02:00;99951.22;;;29.67;53.67
75996;BME280;64681;49.738;9.004;2023-08-20T12:04:27;99945.81;;;29.86;52.57
75996;BME280;64681;49.738;9.004;2023-08-20T12:07:09;99952.56;;;30.07;48.98
75996;BME280;64681;49.738;9.004;2023-08-20T12:09:35;99940.41;;;29.95;50.04
75996;BME280;64681;49.738;9.004;2023-08-20T12:12:02;99939.78;;;29.91;50.52
75996;BME280;64681;49.738;9.004;2023-08-20T12:14:28;99944.69;;;29.74;52.77
75996;BME280;64681;49.738;9.004;2023-08-20T12:16:54;99942.97;;;29.67;50.55
75996;BME280;64681;49.738;9.004;2023-08-20T12:19:21;99937.78;;;29.92;52.34
75996;BME280;64681;49.738;9.004;2023-08-20T12:21:47;99933.53;;;29.78;51.52
75996;BME280;64681;49.738;9.004;2023-08-20T12:24:12;99927.84;;;29.94;52.62
75996;BME280;64681;49.738;9.004;2023-08-20T12:26:39;99930.88;;;30.09;50.39
75996;BME280;64681;49.738;9.004;2023-08-20T12:29:05;99931.94;;;30.12;53.17
75996;BME280;64681;49.738;9.004;2023-08-20T12:31:35;99927.47;;;30.05;51.66
75996;BME280;64681;49.738;9.004;2023-08-20T12:34:01;99930.63;;;29.94;51.33
75996;BME280;64681;49.738;9.004;2023-08-20T12:36:28;99928.34;;;29.80;50.91
75996;BME280;64681;49.738;9.004;2023-08-20T12:38:55;99926.31;;;29.71;52.34
75996;BME280;64681;49.738;9.004;2023-08-20T12:41:21;99921.31;;;30.01;50.94
75996;BME280;64681;49.738;9.004;2023-08-20T12:43:46;99928.69;;;29.82;53.38
75996;BME280;64681;49.738;9.004;2023-08-20T12:46:12;99917.09;;;30.09;50.42
75996;BME280;64681;49.738;9.004;2023-08-20T12:48:39;99917.84;;;30.10;50.64
75996;BME280;64681;49.738;9.004;2023-08-20T12:51:05;99912.78;;;30.08;51.06
75996;BME280;64681;49.738;9.004;2023-08-20T12:53:31;99917.53;;;29.85;53.43
75996;BME280;64681;49.738;9.004;2023-08-20T12:55:57;99917.16;;;29.96;52.20
75996;BME280;64681;49.738;9.004;2023-08-20T12:58:23;99918.44;;;30.05;50.07
75996;BME280;64681;49.738;9.004;2023-08-20T13:00:49;99912.25;;;29.91;52.07
75996;BME280;64681;49.738;9.004;2023-08-20T13:03:15;99912.53;;;30.15;48.24
75996;BME280;64681;49.738;9.004;2023-08-20T13:05:41;99914.28;;;30.00;48.54
75996;BME280;64681;49.738;9.004;2023-08-20T13:08:07;99903.66;;;30.21;46.63
75996;BME280;64681;49.738;9.004;2023-08-20T13:10:33;99906.94;;;30.28;47.40